Time,TemperatureF,DewpointF,PressureIn,WindDirection,WindDirectionDegrees,WindSpeedMPH,WindSpeedGustMPH,Humidity,HourlyPrecipIn,Conditions,Clouds,dailyrainin,SoftwareType,DateUTC
2013-06-06 00:01:00,68.3,67.4,29.84,East,98,5.0,7.0,97,0.00,,SKC,0.23,VWS V13.00,2013-06-06 05:01:00,
2013-06-06 00:06:00,68.3,67.4,29.84,ESE,105,1.0,6.0,97,0.00,,SKC,0.00,VWS V13.00,2013-06-06 05:06:00,
2013-06-06 00:11:00,68.3,67.4,29.84,SE,136,0.0,6.0,97,0.00,,SKC,0.00,VWS V13.00,2013-06-06 05:11:00,
2013-06-06 00:16:00,68.3,67.4,29.84,ESE,123,5.0,7.0,97,0.00,,SKC,0.00,VWS V13.00,2013-06-06 05:16:00,
2013-06-06 00:21:00,68.3,67.4,29.84,SSE,149,0.0,7.0,97,0.00,,SKC,0.00,VWS V13.00,2013-06-06 05:21:00,
2013-06-06 00:26:00,68.2,67.3,29.84,South,169,0.0,7.0,97,0.00,,SKC,0.00,VWS V13.00,2013-06-06 05:26:00,
2013-06-06 00:31:00,68.2,67.3,29.85,South,169,0.0,7.0,97,0.00,,SKC,0.00,VWS V13.00,2013-06-06 05:31:00,
2013-06-06 00:36:00,68.1,67.2,29.84,South,169,3.0,4.0,97,0.00,,SKC,0.00,VWS V13.00,2013-06-06 05:36:00,
2013-06-06 00:41:00,68.1,67.2,29.84,SSE,163,0.0,4.0,97,0.00,,SKC,0.00,VWS V13.00,2013-06-06 05:41:00,
2013-06-06 00:46:00,68.0,67.1,29.84,SSE,163,0.0,4.0,97,0.00,,SKC,0.00,VWS V13.00,2013-06-06 05:46:00,
2013-06-06 00:51:00,67.9,67.0,29.84,SSE,163,0.0,4.0,97,0.00,,SKC,0.00,VWS V13.00,2013-06-06 05:51:00,
2013-06-06 00:55:00,67.9,67.0,29.85,SSE,163,0.0,4.0,97,0.00,,SKC,0.00,VWS V13.00,2013-06-06 05:55:00,
2013-06-06 01:00:00,67.8,66.9,29.84,South,172,0.0,4.0,97,0.00,,SKC,0.00,VWS V13.00,2013-06-06 06:00:00,
2013-06-06 01:05:00,67.8,66.9,29.84,South,178,1.0,5.0,97,0.00,,SKC,0.00,VWS V13.00,2013-06-06 06:05:00,
2013-06-06 01:10:00,67.7,66.8,29.84,SSE,163,0.0,5.0,97,0.00,,SKC,0.00,VWS V13.00,2013-06-06 06:10:00,
2013-06-06 01:15:00,67.7,66.8,29.84,SSE,163,0.0,5.0,97,0.00,,SKC,0.00,VWS V13.00,2013-06-06 06:15:00,
2013-06-06 01:20:00,67.7,66.8,29.84,SSE,163,0.0,5.0,97,0.00,,SKC,0.00,VWS V13.00,2013-06-06 06:20:00,
2013-06-06 01:25:00,67.6,66.7,29.83,SE,138,1.0,5.0,97,0.00,,SKC,0.00,VWS V13.00,2013-06-06 06:25:00,
2013-06-06 01:30:00,67.5,66.6,29.83,SSE,167,1.0,6.0,97,0.00,,SKC,0.00,VWS V13.00,2013-06-06 06:30:00,
2013-06-06 01:35:00,67.5,66.6,29.83,South,180,4.0,6.0,97,0.00,,SKC,0.00,VWS V13.00,2013-06-06 06:35:00,
2013-06-06 01:40:00,67.3,66.4,29.83,SSE,167,4.0,6.0,97,0.00,,SKC,0.00,VWS V13.00,2013-06-06 06:40:00,
2013-06-06 01:45:00,67.3,66.7,29.83,SSE,150,1.0,6.0,98,0.00,,SKC,0.00,VWS V13.00,2013-06-06 06:45:00,
2013-06-06 01:50:00,67.2,66.6,29.82,SSE,150,0.0,6.0,98,0.00,,SKC,0.00,VWS V13.00,2013-06-06 06:50:00,
2013-06-06 01:55:00,67.1,66.5,29.82,South,169,0.0,6.0,98,0.00,,SKC,0.00,VWS V13.00,2013-06-06 06:55:00,
2013-06-06 02:00:00,67.0,66.1,29.82,South,170,0.0,6.0,97,0.00,,SKC,0.00,VWS V13.00,2013-06-06 07:00:00,
2013-06-06 02:05:00,67.0,66.1,29.82,South,170,0.0,1.0,97,0.00,,SKC,0.00,VWS V13.00,2013-06-06 07:05:00,
2013-06-06 02:10:00,66.9,66.0,29.82,SSE,167,0.0,2.0,97,0.00,,SKC,0.00,VWS V13.00,2013-06-06 07:10:00,
2013-06-06 02:15:00,66.8,66.2,29.82,SSE,154,1.0,4.0,98,0.00,,SKC,0.00,VWS V13.00,2013-06-06 07:15:00,
2013-06-06 02:20:00,66.8,66.2,29.81,SSE,154,0.0,4.0,98,0.00,,SKC,0.00,VWS V13.00,2013-06-06 07:20:00,
2013-06-06 02:25:00,66.7,66.1,29.81,SSE,154,0.0,4.0,98,0.00,,SKC,0.00,VWS V13.00,2013-06-06 07:25:00,
2013-06-06 02:30:00,66.7,66.1,29.81,SE,138,0.0,4.0,98,0.00,,SKC,0.00,VWS V13.00,2013-06-06 07:30:00,
2013-06-06 02:35:00,66.7,66.1,29.80,SE,138,0.0,1.0,98,0.00,,SKC,0.00,VWS V13.00,2013-06-06 07:35:00,
2013-06-06 02:40:00,66.6,66.0,29.80,SE,138,0.0,1.0,98,0.00,,SKC,0.00,VWS V13.00,2013-06-06 07:40:00,
2013-06-06 02:45:00,66.6,66.0,29.80,SSE,155,0.0,3.0,98,0.00,,SKC,0.00,VWS V13.00,2013-06-06 07:45:00,
2013-06-06 02:50:00,66.6,66.0,29.81,SSE,155,0.0,3.0,98,0.00,,SKC,0.00,VWS V13.00,2013-06-06 07:50:00,
2013-06-06 02:55:00,66.7,66.1,29.81,SSE,155,0.0,3.0,98,0.00,,SKC,0.00,VWS V13.00,2013-06-06 07:55:00,
2013-06-06 03:00:00,66.7,66.1,29.80,SSE,155,0.0,3.0,98,0.00,,SKC,0.00,VWS V13.00,2013-06-06 08:00:00,
2013-06-06 03:05:00,66.7,66.1,29.80,SSE,155,0.0,0.0,98,0.00,,SKC,0.00,VWS V13.00,2013-06-06 08:05:00,
2013-06-06 03:10:00,66.8,66.2,29.80,SSE,155,0.0,0.0,98,0.00,,SKC,0.00,VWS V13.00,2013-06-06 08:10:00,
2013-06-06 03:15:00,66.7,66.1,29.80,SSE,155,0.0,0.0,98,0.00,,SKC,0.00,VWS V13.00,2013-06-06 08:15:00,
2013-06-06 03:20:00,66.6,66.0,29.80,SSE,155,0.0,0.0,98,0.00,,SKC,0.00,VWS V13.00,2013-06-06 08:20:00,
2013-06-06 03:25:00,66.7,66.1,29.80,SSE,155,0.0,0.0,98,0.00,,SKC,0.00,VWS V13.00,2013-06-06 08:25:00,
2013-06-06 03:30:00,66.6,66.0,29.80,SSE,155,0.0,0.0,98,0.00,,SKC,0.00,VWS V13.00,2013-06-06 08:30:00,
2013-06-06 03:35:00,66.5,65.9,29.80,SSE,155,0.0,0.0,98,0.00,,SKC,0.00,VWS V13.00,2013-06-06 08:35:00,
2013-06-06 03:40:00,66.5,65.9,29.80,SSE,155,0.0,0.0,98,0.00,,SKC,0.00,VWS V13.00,2013-06-06 08:40:00,
2013-06-06 03:45:00,66.5,65.9,29.80,SSE,155,0.0,0.0,98,0.00,,SKC,0.00,VWS V13.00,2013-06-06 08:45:00,
2013-06-06 03:50:00,66.4,65.8,29.81,SSE,155,0.0,0.0,98,0.00,,SKC,0.00,VWS V13.00,2013-06-06 08:50:00,
2013-06-06 03:55:00,66.4,65.8,29.81,SSE,155,0.0,0.0,98,0.00,,SKC,0.00,VWS V13.00,2013-06-06 08:55:00,
2013-06-06 04:00:00,66.3,65.7,29.80,SSE,155,0.0,0.0,98,0.00,,SKC,0.00,VWS V13.00,2013-06-06 09:00:00,
2013-06-06 04:05:00,66.2,65.6,29.81,SSE,155,0.0,0.0,98,0.00,,SKC,0.00,VWS V13.00,2013-06-06 09:05:00,
2013-06-06 04:10:00,66.3,65.7,29.81,SSE,155,0.0,0.0,98,0.00,,SKC,0.00,VWS V13.00,2013-06-06 09:10:00,
2013-06-06 04:15:00,66.2,65.6,29.81,SSE,155,0.0,0.0,98,0.00,,SKC,0.00,VWS V13.00,2013-06-06 09:15:00,
2013-06-06 04:20:00,66.3,66.0,29.81,SSE,155,0.0,0.0,99,0.00,,SKC,0.00,VWS V13.00,2013-06-06 09:20:00,
2013-06-06 04:25:00,66.3,65.7,29.81,SSE,155,0.0,0.0,98,0.00,,SKC,0.00,VWS V13.00,2013-06-06 09:25:00,
2013-06-06 04:30:00,66.4,65.8,29.81,SSE,155,0.0,0.0,98,0.00,,SKC,0.00,VWS V13.00,2013-06-06 09:30:00,
2013-06-06 04:35:00,66.3,65.7,29.81,SSE,155,0.0,0.0,98,0.00,,SKC,0.00,VWS V13.00,2013-06-06 09:35:00,
2013-06-06 04:40:00,66.4,66.1,29.81,SSE,155,0.0,0.0,99,0.00,,SKC,0.00,VWS V13.00,2013-06-06 09:40:00,
2013-06-06 04:45:00,66.3,65.7,29.81,SSE,155,0.0,0.0,98,0.00,,SKC,0.00,VWS V13.00,2013-06-06 09:45:00,
2013-06-06 04:50:00,66.2,65.6,29.81,SSE,155,0.0,0.0,98,0.00,,SKC,0.00,VWS V13.00,2013-06-06 09:50:00,
2013-06-06 04:55:00,66.2,65.6,29.81,SSE,155,0.0,0.0,98,0.00,,SKC,0.00,VWS V13.00,2013-06-06 09:55:00,
2013-06-06 05:00:00,66.1,65.5,29.81,SSE,155,0.0,0.0,98,0.00,,SKC,0.00,VWS V13.00,2013-06-06 10:00:00,
2013-06-06 05:05:00,66.0,65.4,29.82,SSE,155,0.0,0.0,98,0.00,,SKC,0.00,VWS V13.00,2013-06-06 10:05:00,
2013-06-06 05:10:00,65.9,65.3,29.81,SSE,155,0.0,0.0,98,0.00,,SKC,0.00,VWS V13.00,2013-06-06 10:10:00,
2013-06-06 05:15:00,65.8,65.2,29.81,SSE,155,0.0,0.0,98,0.00,,SKC,0.00,VWS V13.00,2013-06-06 10:15:00,
2013-06-06 05:20:00,65.5,64.9,29.81,SSE,155,0.0,0.0,98,0.00,,SKC,0.00,VWS V13.00,2013-06-06 10:20:00,
2013-06-06 05:25:00,65.4,64.8,29.82,SSE,155,0.0,0.0,98,0.00,,SKC,0.00,VWS V13.00,2013-06-06 10:25:00,
2013-06-06 05:30:00,65.4,64.8,29.82,SSE,155,0.0,0.0,98,0.00,,SKC,0.00,VWS V13.00,2013-06-06 10:30:00,
2013-06-06 05:35:00,65.2,64.6,29.81,SSE,155,0.0,0.0,98,0.00,,SKC,0.00,VWS V13.00,2013-06-06 10:35:00,
2013-06-06 05:40:00,65.2,64.6,29.82,SSE,155,0.0,0.0,98,0.00,,SKC,0.00,VWS V13.00,2013-06-06 10:40:00,
2013-06-06 05:45:00,65.5,65.2,29.82,SSW,201,0.0,0.0,99,0.00,,SKC,0.00,VWS V13.00,2013-06-06 10:45:00,
2013-06-06 05:50:00,65.7,65.4,29.82,SSE,157,0.0,0.0,99,0.00,,SKC,0.00,VWS V13.00,2013-06-06 10:50:00,
2013-06-06 05:55:00,65.8,65.5,29.82,SSE,157,0.0,0.0,99,0.00,,SKC,0.00,VWS V13.00,2013-06-06 10:55:00,
2013-06-06 06:00:00,65.9,65.6,29.83,SSE,157,0.0,0.0,99,0.00,,SKC,0.00,VWS V13.00,2013-06-06 11:00:00,
2013-06-06 06:05:00,66.0,65.7,29.82,SSE,157,0.0,0.0,99,0.00,,SKC,0.00,VWS V13.00,2013-06-06 11:05:00,
2013-06-06 06:10:00,66.1,65.8,29.83,SSE,161,0.0,0.0,99,0.00,,SKC,0.00,VWS V13.00,2013-06-06 11:10:00,
2013-06-06 06:15:00,66.2,65.9,29.83,SSE,168,1.0,1.0,99,0.00,,SKC,0.00,VWS V13.00,2013-06-06 11:15:00,
2013-06-06 06:20:00,66.3,66.0,29.82,SSE,168,1.0,2.0,99,0.00,,SKC,0.00,VWS V13.00,2013-06-06 11:20:00,
2013-06-06 06:25:00,66.3,66.0,29.82,SSE,168,0.0,2.0,99,0.00,,SKC,0.00,VWS V13.00,2013-06-06 11:25:00,
2013-06-06 06:30:00,66.4,66.1,29.83,South,175,2.0,4.0,99,0.00,,SKC,0.00,VWS V13.00,2013-06-06 11:30:00,
2013-06-06 06:35:00,66.5,66.2,29.83,SSE,167,0.0,3.0,99,0.00,,SKC,0.00,VWS V13.00,2013-06-06 11:35:00,
2013-06-06 06:40:00,66.5,66.2,29.82,SSE,167,0.0,3.0,99,0.00,,SKC,0.00,VWS V13.00,2013-06-06 11:40:00,
2013-06-06 06:45:00,66.8,66.5,29.82,SSE,167,0.0,3.0,99,0.00,,SKC,0.00,VWS V13.00,2013-06-06 11:45:00,
2013-06-06 06:50:00,67.2,66.9,29.82,SSE,167,0.0,3.0,99,0.00,,SKC,0.00,VWS V13.00,2013-06-06 11:50:00,
2013-06-06 06:55:00,67.5,67.2,29.82,SSE,164,4.0,4.0,99,0.00,,SKC,0.00,VWS V13.00,2013-06-06 11:55:00,
2013-06-06 07:00:00,67.7,67.4,29.82,South,173,2.0,4.0,99,0.00,,SKC,0.00,VWS V13.00,2013-06-06 12:00:00,
2013-06-06 07:05:00,68.1,67.8,29.83,South,173,0.0,1.0,99,0.00,,SKC,0.00,VWS V13.00,2013-06-06 12:05:00,
2013-06-06 07:10:00,68.6,68.3,29.82,South,173,0.0,1.0,99,0.00,,SKC,0.00,VWS V13.00,2013-06-06 12:10:00,
2013-06-06 07:14:00,68.7,68.4,29.83,SSW,194,1.0,4.0,99,0.00,,SKC,0.00,VWS V13.00,2013-06-06 12:14:00,
2013-06-06 07:19:00,68.8,67.9,29.83,SW,236,1.0,5.0,97,0.00,,SKC,0.00,VWS V13.00,2013-06-06 12:19:00,
2013-06-06 07:30:00,69.5,68.3,29.82,SSW,202,1.0,6.0,96,0.00,,SKC,0.00,VWS V13.00,2013-06-06 12:30:00,
2013-06-06 08:00:00,71.1,68.7,29.83,SSW,202,2.0,7.0,92,0.00,,SKC,0.00,VWS V13.00,2013-06-06 13:00:00,
2013-06-06 08:30:00,72.0,68.6,29.83,West,270,2.0,7.0,89,0.00,,SKC,0.00,VWS V13.00,2013-06-06 13:30:00,
2013-06-06 09:00:00,73.2,68.4,29.82,West,270,3.0,7.0,85,0.00,,SKC,0.00,VWS V13.00,2013-06-06 14:00:00,
2013-06-06 09:30:00,74.4,68.9,29.81,SSW,202,3.0,8.0,83,0.00,,SKC,0.00,VWS V13.00,2013-06-06 14:30:00,
2013-06-06 10:00:00,76.1,69.1,29.80,South,180,3.0,9.0,79,0.00,,SKC,0.00,VWS V13.00,2013-06-06 15:00:00,
2013-06-06 10:30:00,77.9,69.7,29.80,SSE,158,2.0,8.0,76,0.00,,SKC,0.00,VWS V13.00,2013-06-06 15:30:00,
2013-06-06 11:00:00,79.4,71.2,29.79,SW,225,2.0,6.0,76,0.00,,SKC,0.00,VWS V13.00,2013-06-06 16:00:00,
2013-06-06 11:30:00,79.6,68.5,29.78,SSE,158,4.0,9.0,69,0.00,,SKC,0.00,VWS V13.00,2013-06-06 16:30:00,
2013-06-06 12:00:00,79.7,69.9,29.77,SW,225,2.0,7.0,72,0.00,,SKC,0.00,VWS V13.00,2013-06-06 17:00:00,
2013-06-06 12:30:00,80.1,71.1,29.77,SSW,202,3.0,9.0,74,0.00,,SKC,0.00,VWS V13.00,2013-06-06 17:30:00,
2013-06-06 13:00:00,80.9,70.6,29.76,South,180,3.0,9.0,71,0.00,,SKC,0.00,VWS V13.00,2013-06-06 18:00:00,
2013-06-06 13:30:00,81.6,70.9,29.76,South,180,3.0,8.0,70,0.00,,SKC,0.00,VWS V13.00,2013-06-06 18:30:00,
2013-06-06 14:00:00,78.7,70.9,29.76,South,180,4.0,9.0,77,0.00,,SKC,0.00,VWS V13.00,2013-06-06 19:00:00,
2013-06-06 14:30:00,78.8,71.0,29.75,South,180,4.0,8.0,77,0.00,,SKC,0.00,VWS V13.00,2013-06-06 19:30:00,
2013-06-06 15:00:00,78.2,70.4,29.75,South,180,3.0,8.0,77,0.00,,SKC,0.00,VWS V13.00,2013-06-06 20:00:00,
2013-06-06 15:30:00,79.2,71.4,29.73,South,180,2.0,6.0,77,0.00,,SKC,0.00,VWS V13.00,2013-06-06 20:30:00,
2013-06-06 16:00:00,79.7,71.5,29.72,South,180,2.0,6.0,76,0.00,,SKC,0.00,VWS V13.00,2013-06-06 21:00:00,
2013-06-06 16:30:00,79.7,71.5,29.70,SE,135,2.0,6.0,76,0.00,,SKC,0.00,VWS V13.00,2013-06-06 21:30:00,
2013-06-06 17:00:00,76.8,70.5,29.71,South,180,2.0,15.0,81,0.01,,SKC,0.01,VWS V13.00,2013-06-06 22:00:00,
2013-06-06 17:30:00,73.2,72.0,29.70,SSW,202,2.0,15.0,96,0.18,,SKC,0.18,VWS V13.00,2013-06-06 22:30:00,
2013-06-06 18:00:00,73.8,72.0,29.71,South,180,1.0,4.0,94,0.18,,SKC,0.18,VWS V13.00,2013-06-06 23:00:00,
2013-06-06 18:30:00,73.9,72.1,29.70,East,90,0.0,2.0,94,0.17,,SKC,0.18,VWS V13.00,2013-06-06 23:30:00,
2013-06-06 19:00:00,74.2,72.4,29.70,East,90,0.0,0.0,94,0.00,,SKC,0.18,VWS V13.00,2013-06-07 00:00:00,
2013-06-06 19:30:00,73.6,72.1,29.70,East,90,0.0,0.0,95,0.00,,SKC,0.18,VWS V13.00,2013-06-07 00:30:00,
2013-06-06 20:00:00,72.2,71.0,29.70,East,90,0.0,0.0,96,0.00,,SKC,0.18,VWS V13.00,2013-06-07 01:00:00,
2013-06-06 20:30:00,71.7,70.8,29.70,East,90,0.0,0.0,97,0.00,,SKC,0.18,VWS V13.00,2013-06-07 01:30:00,
2013-06-06 21:00:00,72.4,71.8,29.71,East,90,0.0,0.0,98,0.00,,SKC,0.18,VWS V13.00,2013-06-07 02:00:00,
2013-06-06 21:30:00,72.4,71.8,29.71,SSE,158,0.0,1.0,98,0.00,,SKC,0.18,VWS V13.00,2013-06-07 02:30:00,
2013-06-06 22:00:00,71.7,71.1,29.72,SSE,158,0.0,0.0,98,0.00,,SKC,0.18,VWS V13.00,2013-06-07 03:00:00,
2013-06-06 22:30:00,71.5,70.9,29.72,SSE,158,0.0,1.0,98,0.00,,SKC,0.18,VWS V13.00,2013-06-07 03:30:00,
2013-06-06 23:00:00,71.6,71.0,29.71,SSE,158,0.0,1.0,98,0.00,,SKC,0.18,VWS V13.00,2013-06-07 04:00:00,
2013-06-06 23:30:00,70.9,70.3,29.71,SSE,158,0.0,1.0,98,0.00,,SKC,0.18,VWS V13.00,2013-06-07 04:30:00,